Terminal Aerodrome Forecast
Issued by NWS Twin Cities, MN

Home | Current Version | Previous Version | Text Only | Print | Product List | Glossary Off
Versions: 1 2 3 4 5 6 7 8 9 10 11 12 13 14 15 16 17 18 19

903
FTUS43 KMPX 091738
TAFSTC
TAF
KSTC 091738Z 0918/1018 33010G20KT P6SM SKC
     FM092000 33010G18KT P6SM SCT020
     FM100000 32009KT P6SM SKC
     FM100800 34004KT P6SM SCT250=

USA.gov is the U.S. government's official web portal to all federal, state and local government web resources and services.